sensor_id;sensor_type;location;lat;lon;timestamp;temperature;humidity
41256;DHT22;26989;45.524;10.938;2023-07-20T00:00:09;21.60;99.90
41256;DHT22;26989;45.524;10.938;2023-07-20T00:02:36;21.90;99.90
41256;DHT22;26989;45.524;10.938;2023-07-20T00:05:03;22.20;99.90
41256;DHT22;26989;45.524;10.938;2023-07-20T00:07:30;22.50;99.90
41256;DHT22;26989;45.524;10.938;2023-07-20T00:09:58;22.50;99.90
41256;DHT22;26989;45.524;10.938;2023-07-20T00:12:25;22.60;99.90
41256;DHT22;26989;45.524;10.938;2023-07-20T00:14:52;22.70;99.90
41256;DHT22;26989;45.524;10.938;2023-07-20T00:17:20;22.60;99.90
41256;DHT22;26989;45.524;10.938;2023-07-20T00:19:47;22.60;99.90
41256;DHT22;26989;45.524;10.938;2023-07-20T00:22:14;22.60;99.90
41256;DHT22;26989;45.524;10.938;2023-07-20T00:24:41;22.30;99.90
41256;DHT22;26989;45.524;10.938;2023-07-20T00:27:08;22.30;99.90
41256;DHT22;26989;45.524;10.938;2023-07-20T00:29:35;22.50;99.90
41256;DHT22;26989;45.524;10.938;2023-07-20T00:32:02;22.60;99.90
41256;DHT22;26989;45.524;10.938;2023-07-20T00:34:32;22.60;99.90
41256;DHT22;26989;45.524;10.938;2023-07-20T00:36:59;22.60;99.90
41256;DHT22;26989;45.524;10.938;2023-07-20T00:39:26;22.60;99.90
41256;DHT22;26989;45.524;10.938;2023-07-20T00:41:53;22.60;99.90
41256;DHT22;26989;45.524;10.938;2023-07-20T00:44:20;22.50;99.90
41256;DHT22;26989;45.524;10.938;2023-07-20T00:46:47;22.50;99.90
41256;DHT22;26989;45.524;10.938;2023-07-20T00:49:16;22.40;99.90
41256;DHT22;26989;45.524;10.938;2023-07-20T00:51:43;22.50;99.90
41256;DHT22;26989;45.524;10.938;2023-07-20T00:54:10;22.50;99.90
41256;DHT22;26989;45.524;10.938;2023-07-20T00:56:37;22.50;99.90
41256;DHT22;26989;45.524;10.938;2023-07-20T00:59:04;22.30;99.90
41256;DHT22;26989;45.524;10.938;2023-07-20T01:01:31;22.10;99.90
41256;DHT22;26989;45.524;10.938;2023-07-20T01:03:59;21.70;99.90
41256;DHT22;26989;45.524;10.938;2023-07-20T01:06:36;21.40;99.90
41256;DHT22;26989;45.524;10.938;2023-07-20T01:14:45;21.20;99.90
41256;DHT22;26989;45.524;10.938;2023-07-20T01:17:12;21.60;99.90
41256;DHT22;26989;45.524;10.938;2023-07-20T01:19:40;21.70;99.90
41256;DHT22;26989;45.524;10.938;2023-07-20T01:25:11;21.70;99.90
41256;DHT22;26989;45.524;10.938;2023-07-20T01:33:02;21.40;99.90
41256;DHT22;26989;45.524;10.938;2023-07-20T01:35:30;21.60;99.90
41256;DHT22;26989;45.524;10.938;2023-07-20T01:37:58;21.70;99.90
41256;DHT22;26989;45.524;10.938;2023-07-20T01:40:26;21.80;99.90
41256;DHT22;26989;45.524;10.938;2023-07-20T01:42:53;21.60;99.90
41256;DHT22;26989;45.524;10.938;2023-07-20T01:45:21;21.60;99.90
41256;DHT22;26989;45.524;10.938;2023-07-20T01:47:48;21.70;99.90
41256;DHT22;26989;45.524;10.938;2023-07-20T01:50:15;21.70;99.90
41256;DHT22;26989;45.524;10.938;2023-07-20T01:52:41;21.90;99.90
41256;DHT22;26989;45.524;10.938;2023-07-20T01:55:08;22.10;99.90
41256;DHT22;26989;45.524;10.938;2023-07-20T01:57:35;22.10;99.90
41256;DHT22;26989;45.524;10.938;2023-07-20T02:00:03;22.00;99.90
41256;DHT22;26989;45.524;10.938;2023-07-20T02:02:30;21.90;99.90
41256;DHT22;26989;45.524;10.938;2023-07-20T02:04:57;21.90;99.90
41256;DHT22;26989;45.524;10.938;2023-07-20T02:07:24;21.90;99.90
41256;DHT22;26989;45.524;10.938;2023-07-20T02:09:51;21.90;99.90
41256;DHT22;26989;45.524;10.938;2023-07-20T02:12:18;22.00;99.90
41256;DHT22;26989;45.524;10.938;2023-07-20T02:14:45;22.10;99.90
41256;DHT22;26989;45.524;10.938;2023-07-20T02:17:12;22.20;99.90
41256;DHT22;26989;45.524;10.938;2023-07-20T02:19:40;22.20;99.90
41256;DHT22;26989;45.524;10.938;2023-07-20T02:22:07;22.30;99.90
41256;DHT22;26989;45.524;10.938;2023-07-20T02:24:34;22.40;99.90
41256;DHT22;26989;45.524;10.938;2023-07-20T02:27:01;22.30;99.90
41256;DHT22;26989;45.524;10.938;2023-07-20T02:29:28;22.40;99.90
41256;DHT22;26989;45.524;10.938;2023-07-20T02:31:55;22.50;99.90
41256;DHT22;26989;45.524;10.938;2023-07-20T02:34:22;22.30;99.90
41256;DHT22;26989;45.524;10.938;2023-07-20T02:36:49;22.10;99.90
41256;DHT22;26989;45.524;10.938;2023-07-20T02:39:16;21.90;99.90
41256;DHT22;26989;45.524;10.938;2023-07-20T02:41:43;21.90;99.90
41256;DHT22;26989;45.524;10.938;2023-07-20T02:44:10;21.70;99.90
41256;DHT22;26989;45.524;10.938;2023-07-20T02:46:36;21.30;99.90
41256;DHT22;26989;45.524;10.938;2023-07-20T02:49:03;21.20;99.90
41256;DHT22;26989;45.524;10.938;2023-07-20T02:51:31;21.10;99.90
41256;DHT22;26989;45.524;10.938;2023-07-20T02:53:58;21.00;99.90
41256;DHT22;26989;45.524;10.938;2023-07-20T02:56:24;21.00;99.90
41256;DHT22;26989;45.524;10.938;2023-07-20T02:58:51;21.20;99.90
41256;DHT22;26989;45.524;10.938;2023-07-20T03:01:19;21.20;99.90
41256;DHT22;26989;45.524;10.938;2023-07-20T03:03:46;21.20;99.90
41256;DHT22;26989;45.524;10.938;2023-07-20T03:06:14;21.20;99.90
41256;DHT22;26989;45.524;10.938;2023-07-20T03:08:42;21.10;99.90
41256;DHT22;26989;45.524;10.938;2023-07-20T03:11:17;21.20;99.90
41256;DHT22;26989;45.524;10.938;2023-07-20T03:13:44;21.00;99.90
41256;DHT22;26989;45.524;10.938;2023-07-20T03:16:13;20.90;99.90
41256;DHT22;26989;45.524;10.938;2023-07-20T03:18:42;20.90;99.90
41256;DHT22;26989;45.524;10.938;2023-07-20T03:21:10;20.80;99.90
41256;DHT22;26989;45.524;10.938;2023-07-20T03:23:40;20.80;99.90
41256;DHT22;26989;45.524;10.938;2023-07-20T03:26:08;20.70;99.90
41256;DHT22;26989;45.524;10.938;2023-07-20T03:28:38;20.80;99.90
41256;DHT22;26989;45.524;10.938;2023-07-20T03:31:05;20.80;99.90
41256;DHT22;26989;45.524;10.938;2023-07-20T03:33:33;20.70;99.90
41256;DHT22;26989;45.524;10.938;2023-07-20T03:36:00;20.70;99.90
41256;DHT22;26989;45.524;10.938;2023-07-20T03:38:28;20.80;99.90
41256;DHT22;26989;45.524;10.938;2023-07-20T03:40:57;20.80;99.90
41256;DHT22;26989;45.524;10.938;2023-07-20T03:43:27;20.80;99.90
41256;DHT22;26989;45.524;10.938;2023-07-20T03:45:54;20.70;99.90
41256;DHT22;26989;45.524;10.938;2023-07-20T03:48:24;20.60;99.90
41256;DHT22;26989;45.524;10.938;2023-07-20T03:50:52;20.70;99.90
41256;DHT22;26989;45.524;10.938;2023-07-20T03:53:19;20.70;99.90
41256;DHT22;26989;45.524;10.938;2023-07-20T03:55:51;20.80;99.90
41256;DHT22;26989;45.524;10.938;2023-07-20T03:58:19;20.70;99.90
41256;DHT22;26989;45.524;10.938;2023-07-20T04:00:48;20.70;99.90
41256;DHT22;26989;45.524;10.938;2023-07-20T04:03:15;20.80;99.90
41256;DHT22;26989;45.524;10.938;2023-07-20T04:05:43;20.70;99.90
41256;DHT22;26989;45.524;10.938;2023-07-20T04:08:10;20.60;99.90
41256;DHT22;26989;45.524;10.938;2023-07-20T04:10:38;20.60;99.90
41256;DHT22;26989;45.524;10.938;2023-07-20T04:13:05;20.60;99.90
41256;DHT22;26989;45.524;10.938;2023-07-20T04:15:33;20.60;99.90
41256;DHT22;26989;45.524;10.938;2023-07-20T04:18:00;20.50;99.90
41256;DHT22;26989;45.524;10.938;2023-07-20T04:20:27;20.60;99.90
41256;DHT22;26989;45.524;10.938;2023-07-20T04:22:54;20.60;99.90
41256;DHT22;26989;45.524;10.938;2023-07-20T04:25:21;20.60;99.90
41256;DHT22;26989;45.524;10.938;2023-07-20T04:27:48;20.60;99.90
41256;DHT22;26989;45.524;10.938;2023-07-20T04:30:17;20.60;99.90
41256;DHT22;26989;45.524;10.938;2023-07-20T04:32:46;20.60;99.90
41256;DHT22;26989;45.524;10.938;2023-07-20T04:35:54;20.90;99.90
41256;DHT22;26989;45.524;10.938;2023-07-20T04:38:21;20.80;99.90
41256;DHT22;26989;45.524;10.938;2023-07-20T04:40:49;20.80;99.90
41256;DHT22;26989;45.524;10.938;2023-07-20T04:43:17;20.90;99.90
41256;DHT22;26989;45.524;10.938;2023-07-20T04:45:44;20.90;99.90
41256;DHT22;26989;45.524;10.938;2023-07-20T04:48:14;20.90;99.90
41256;DHT22;26989;45.524;10.938;2023-07-20T04:50:43;21.60;99.90
41256;DHT22;26989;45.524;10.938;2023-07-20T04:53:14;22.90;99.90
41256;DHT22;26989;45.524;10.938;2023-07-20T04:55:47;23.60;99.90
41256;DHT22;26989;45.524;10.938;2023-07-20T04:58:18;23.60;99.90
41256;DHT22;26989;45.524;10.938;2023-07-20T05:00:45;23.70;99.90
41256;DHT22;26989;45.524;10.938;2023-07-20T05:03:12;23.60;99.90
41256;DHT22;26989;45.524;10.938;2023-07-20T05:05:39;24.30;99.90
41256;DHT22;26989;45.524;10.938;2023-07-20T05:08:07;25.10;99.90
41256;DHT22;26989;45.524;10.938;2023-07-20T05:10:33;25.30;99.90
41256;DHT22;26989;45.524;10.938;2023-07-20T05:13:00;25.30;99.90
41256;DHT22;26989;45.524;10.938;2023-07-20T05:15:27;25.70;99.90
41256;DHT22;26989;45.524;10.938;2023-07-20T05:17:54;25.50;99.90
41256;DHT22;26989;45.524;10.938;2023-07-20T05:20:21;26.20;99.90
41256;DHT22;26989;45.524;10.938;2023-07-20T05:22:48;26.70;99.90
41256;DHT22;26989;45.524;10.938;2023-07-20T05:25:15;26.40;99.90
41256;DHT22;26989;45.524;10.938;2023-07-20T05:27:45;25.50;99.90
41256;DHT22;26989;45.524;10.938;2023-07-20T05:30:13;25.60;99.90
41256;DHT22;26989;45.524;10.938;2023-07-20T05:32:40;25.70;99.90
41256;DHT22;26989;45.524;10.938;2023-07-20T05:35:07;26.50;99.90
41256;DHT22;26989;45.524;10.938;2023-07-20T05:37:35;27.20;99.90
41256;DHT22;26989;45.524;10.938;2023-07-20T05:40:02;26.90;99.90
41256;DHT22;26989;45.524;10.938;2023-07-20T05:42:29;27.70;99.90
41256;DHT22;26989;45.524;10.938;2023-07-20T05:44:56;28.30;99.90
41256;DHT22;26989;45.524;10.938;2023-07-20T05:47:23;29.20;99.90
41256;DHT22;26989;45.524;10.938;2023-07-20T05:49:50;30.10;99.90
41256;DHT22;26989;45.524;10.938;2023-07-20T05:52:17;32.00;99.90
41256;DHT22;26989;45.524;10.938;2023-07-20T05:54:43;34.60;99.90
41256;DHT22;26989;45.524;10.938;2023-07-20T05:57:11;32.00;99.90
41256;DHT22;26989;45.524;10.938;2023-07-20T05:59:38;31.60;99.90
41256;DHT22;26989;45.524;10.938;2023-07-20T06:02:07;31.30;99.90
41256;DHT22;26989;45.524;10.938;2023-07-20T06:04:34;31.50;99.90
41256;DHT22;26989;45.524;10.938;2023-07-20T06:07:02;33.00;99.90
41256;DHT22;26989;45.524;10.938;2023-07-20T06:09:28;30.80;99.90
41256;DHT22;26989;45.524;10.938;2023-07-20T06:11:56;30.90;99.90
41256;DHT22;26989;45.524;10.938;2023-07-20T06:14:23;30.20;99.90
41256;DHT22;26989;45.524;10.938;2023-07-20T06:16:50;32.30;99.90
41256;DHT22;26989;45.524;10.938;2023-07-20T06:19:17;34.20;99.90
41256;DHT22;26989;45.524;10.938;2023-07-20T06:21:44;33.40;99.90
41256;DHT22;26989;45.524;10.938;2023-07-20T06:24:11;34.40;99.90
41256;DHT22;26989;45.524;10.938;2023-07-20T06:26:38;36.00;99.90
41256;DHT22;26989;45.524;10.938;2023-07-20T06:29:06;36.90;99.90
41256;DHT22;26989;45.524;10.938;2023-07-20T06:31:36;38.30;99.90
41256;DHT22;26989;45.524;10.938;2023-07-20T06:34:03;38.60;99.90
41256;DHT22;26989;45.524;10.938;2023-07-20T06:36:30;39.30;99.30
41256;DHT22;26989;45.524;10.938;2023-07-20T06:38:57;39.10;98.90
41256;DHT22;26989;45.524;10.938;2023-07-20T06:41:27;39.10;98.80
41256;DHT22;26989;45.524;10.938;2023-07-20T06:43:57;38.80;98.30
41256;DHT22;26989;45.524;10.938;2023-07-20T06:46:26;39.80;98.40
41256;DHT22;26989;45.524;10.938;2023-07-20T06:48:54;39.80;98.20
41256;DHT22;26989;45.524;10.938;2023-07-20T06:51:24;39.80;97.40
41256;DHT22;26989;45.524;10.938;2023-07-20T06:53:52;39.80;97.10
41256;DHT22;26989;45.524;10.938;2023-07-20T06:56:18;38.20;97.30
41256;DHT22;26989;45.524;10.938;2023-07-20T06:58:50;39.00;97.60
41256;DHT22;26989;45.524;10.938;2023-07-20T07:01:17;39.20;97.50
41256;DHT22;26989;45.524;10.938;2023-07-20T07:03:44;39.60;97.10
41256;DHT22;26989;45.524;10.938;2023-07-20T07:06:10;39.50;96.60
41256;DHT22;26989;45.524;10.938;2023-07-20T07:08:37;39.30;97.00
41256;DHT22;26989;45.524;10.938;2023-07-20T07:11:04;37.00;97.50
41256;DHT22;26989;45.524;10.938;2023-07-20T07:13:32;34.10;99.90
41256;DHT22;26989;45.524;10.938;2023-07-20T07:15:59;32.20;99.90
41256;DHT22;26989;45.524;10.938;2023-07-20T07:18:25;31.30;99.90
41256;DHT22;26989;45.524;10.938;2023-07-20T07:20:53;30.70;99.90
41256;DHT22;26989;45.524;10.938;2023-07-20T07:23:21;30.10;99.90
41256;DHT22;26989;45.524;10.938;2023-07-20T07:25:48;29.90;99.90
41256;DHT22;26989;45.524;10.938;2023-07-20T07:28:15;29.80;99.90
41256;DHT22;26989;45.524;10.938;2023-07-20T07:30:42;29.80;99.90
41256;DHT22;26989;45.524;10.938;2023-07-20T07:33:09;29.60;99.90
41256;DHT22;26989;45.524;10.938;2023-07-20T07:35:37;29.40;99.90
41256;DHT22;26989;45.524;10.938;2023-07-20T07:38:04;29.30;99.90
41256;DHT22;26989;45.524;10.938;2023-07-20T07:40:54;29.30;99.90
41256;DHT22;26989;45.524;10.938;2023-07-20T07:43:21;29.40;99.90
41256;DHT22;26989;45.524;10.938;2023-07-20T07:45:48;29.40;99.90
41256;DHT22;26989;45.524;10.938;2023-07-20T07:48:15;29.40;99.90
41256;DHT22;26989;45.524;10.938;2023-07-20T07:50:41;29.60;99.90
41256;DHT22;26989;45.524;10.938;2023-07-20T07:53:09;29.60;99.90
41256;DHT22;26989;45.524;10.938;2023-07-20T07:55:37;29.60;99.90
41256;DHT22;26989;45.524;10.938;2023-07-20T07:58:04;29.60;99.90
41256;DHT22;26989;45.524;10.938;2023-07-20T08:00:31;29.30;99.90
41256;DHT22;26989;45.524;10.938;2023-07-20T08:03:06;29.20;99.90
41256;DHT22;26989;45.524;10.938;2023-07-20T08:05:34;29.30;99.90
41256;DHT22;26989;45.524;10.938;2023-07-20T08:08:04;29.40;99.90
41256;DHT22;26989;45.524;10.938;2023-07-20T08:10:31;29.40;99.90
41256;DHT22;26989;45.524;10.938;2023-07-20T08:12:58;29.40;99.90
41256;DHT22;26989;45.524;10.938;2023-07-20T08:15:25;29.40;99.90
41256;DHT22;26989;45.524;10.938;2023-07-20T08:17:52;29.30;99.90
41256;DHT22;26989;45.524;10.938;2023-07-20T08:20:19;29.40;99.90
41256;DHT22;26989;45.524;10.938;2023-07-20T08:22:50;29.40;99.90
41256;DHT22;26989;45.524;10.938;2023-07-20T08:25:17;29.30;99.90
41256;DHT22;26989;45.524;10.938;2023-07-20T08:27:43;29.40;99.90
41256;DHT22;26989;45.524;10.938;2023-07-20T08:30:13;29.60;99.90
41256;DHT22;26989;45.524;10.938;2023-07-20T08:32:40;29.30;99.90
41256;DHT22;26989;45.524;10.938;2023-07-20T08:35:07;29.10;99.90
41256;DHT22;26989;45.524;10.938;2023-07-20T08:37:34;29.20;99.90
41256;DHT22;26989;45.524;10.938;2023-07-20T08:40:01;29.30;99.90
41256;DHT22;26989;45.524;10.938;2023-07-20T08:42:30;29.30;99.90
41256;DHT22;26989;45.524;10.938;2023-07-20T08:44:57;29.20;99.90
41256;DHT22;26989;45.524;10.938;2023-07-20T08:47:25;29.20;99.90
41256;DHT22;26989;45.524;10.938;2023-07-20T08:49:54;29.30;99.90
41256;DHT22;26989;45.524;10.938;2023-07-20T08:52:22;29.50;99.90
41256;DHT22;26989;45.524;10.938;2023-07-20T08:54:49;29.50;99.90
41256;DHT22;26989;45.524;10.938;2023-07-20T08:57:17;29.70;99.90
41256;DHT22;26989;45.524;10.938;2023-07-20T08:59:44;29.70;99.90
41256;DHT22;26989;45.524;10.938;2023-07-20T09:02:15;29.90;99.90
41256;DHT22;26989;45.524;10.938;2023-07-20T09:04:45;29.90;99.90
41256;DHT22;26989;45.524;10.938;2023-07-20T09:07:13;29.90;99.90
41256;DHT22;26989;45.524;10.938;2023-07-20T09:09:41;29.70;99.90
41256;DHT22;26989;45.524;10.938;2023-07-20T09:12:15;29.80;99.90
41256;DHT22;26989;45.524;10.938;2023-07-20T09:14:45;30.00;99.90
41256;DHT22;26989;45.524;10.938;2023-07-20T09:17:14;29.70;99.90
41256;DHT22;26989;45.524;10.938;2023-07-20T09:19:47;29.20;99.90
41256;DHT22;26989;45.524;10.938;2023-07-20T09:22:15;29.50;99.90
41256;DHT22;26989;45.524;10.938;2023-07-20T09:24:42;29.70;99.90
41256;DHT22;26989;45.524;10.938;2023-07-20T09:27:10;29.90;99.90
41256;DHT22;26989;45.524;10.938;2023-07-20T09:29:53;29.90;99.90
41256;DHT22;26989;45.524;10.938;2023-07-20T09:32:21;29.80;99.90
41256;DHT22;26989;45.524;10.938;2023-07-20T09:34:52;29.80;99.90
41256;DHT22;26989;45.524;10.938;2023-07-20T09:37:23;29.90;99.90
41256;DHT22;26989;45.524;10.938;2023-07-20T09:39:53;30.00;99.90
41256;DHT22;26989;45.524;10.938;2023-07-20T09:42:23;29.90;99.90
41256;DHT22;26989;45.524;10.938;2023-07-20T09:44:55;29.80;99.90
41256;DHT22;26989;45.524;10.938;2023-07-20T09:47:23;29.80;99.90
41256;DHT22;26989;45.524;10.938;2023-07-20T09:49:58;30.00;99.90
41256;DHT22;26989;45.524;10.938;2023-07-20T09:52:34;30.10;99.90
41256;DHT22;26989;45.524;10.938;2023-07-20T09:55:05;30.10;99.90
41256;DHT22;26989;45.524;10.938;2023-07-20T09:57:34;30.10;99.90
41256;DHT22;26989;45.524;10.938;2023-07-20T10:00:03;30.20;99.90
41256;DHT22;26989;45.524;10.938;2023-07-20T10:02:42;30.40;99.90
41256;DHT22;26989;45.524;10.938;2023-07-20T10:05:14;30.00;99.90
41256;DHT22;26989;45.524;10.938;2023-07-20T10:07:47;30.10;99.90
41256;DHT22;26989;45.524;10.938;2023-07-20T10:10:19;30.30;99.90
41256;DHT22;26989;45.524;10.938;2023-07-20T10:12:49;30.00;99.90
41256;DHT22;26989;45.524;10.938;2023-07-20T10:15:20;29.90;99.90
41256;DHT22;26989;45.524;10.938;2023-07-20T10:18:02;30.00;99.90
41256;DHT22;26989;45.524;10.938;2023-07-20T10:20:34;30.10;99.90
41256;DHT22;26989;45.524;10.938;2023-07-20T10:23:03;30.00;99.90
41256;DHT22;26989;45.524;10.938;2023-07-20T10:25:30;30.10;99.90
41256;DHT22;26989;45.524;10.938;2023-07-20T10:27:59;30.20;99.90
41256;DHT22;26989;45.524;10.938;2023-07-20T10:30:27;30.00;99.90
41256;DHT22;26989;45.524;10.938;2023-07-20T10:32:54;30.20;99.90
41256;DHT22;26989;45.524;10.938;2023-07-20T10:35:21;30.20;99.90
41256;DHT22;26989;45.524;10.938;2023-07-20T10:38:01;30.10;99.90
41256;DHT22;26989;45.524;10.938;2023-07-20T10:43:09;30.30;99.90
41256;DHT22;26989;45.524;10.938;2023-07-20T10:45:39;30.20;99.90
41256;DHT22;26989;45.524;10.938;2023-07-20T10:48:23;30.20;99.90
41256;DHT22;26989;45.524;10.938;2023-07-20T10:51:28;30.30;99.90
41256;DHT22;26989;45.524;10.938;2023-07-20T10:53:56;30.50;99.90
41256;DHT22;26989;45.524;10.938;2023-07-20T10:56:27;30.40;99.90
41256;DHT22;26989;45.524;10.938;2023-07-20T10:58:58;30.40;99.90
41256;DHT22;26989;45.524;10.938;2023-07-20T11:01:30;30.40;99.90
41256;DHT22;26989;45.524;10.938;2023-07-20T11:03:59;30.30;99.90
41256;DHT22;26989;45.524;10.938;2023-07-20T11:06:30;30.30;99.90
41256;DHT22;26989;45.524;10.938;2023-07-20T11:09:05;30.40;99.90
41256;DHT22;26989;45.524;10.938;2023-07-20T11:11:35;30.40;99.90
41256;DHT22;26989;45.524;10.938;2023-07-20T11:14:19;30.40;99.90
41256;DHT22;26989;45.524;10.938;2023-07-20T11:16:48;30.60;99.90
41256;DHT22;26989;45.524;10.938;2023-07-20T11:19:19;30.70;99.90
41256;DHT22;26989;45.524;10.938;2023-07-20T11:21:53;30.70;99.90
41256;DHT22;26989;45.524;10.938;2023-07-20T11:24:28;30.60;99.90
41256;DHT22;26989;45.524;10.938;2023-07-20T11:26:55;30.70;99.90
41256;DHT22;26989;45.524;10.938;2023-07-20T11:29:23;30.60;99.90
41256;DHT22;26989;45.524;10.938;2023-07-20T11:31:59;30.70;99.90
41256;DHT22;26989;45.524;10.938;2023-07-20T11:34:27;30.70;99.90
41256;DHT22;26989;45.524;10.938;2023-07-20T11:36:54;30.70;99.90
41256;DHT22;26989;45.524;10.938;2023-07-20T11:39:25;30.60;99.90
41256;DHT22;26989;45.524;10.938;2023-07-20T11:41:56;30.80;99.90
41256;DHT22;26989;45.524;10.938;2023-07-20T11:44:25;31.00;99.90
41256;DHT22;26989;45.524;10.938;2023-07-20T11:47:00;31.10;99.90
41256;DHT22;26989;45.524;10.938;2023-07-20T11:49:30;31.20;99.90
41256;DHT22;26989;45.524;10.938;2023-07-20T11:52:00;31.20;99.90
41256;DHT22;26989;45.524;10.938;2023-07-20T11:54:28;31.20;99.90
41256;DHT22;26989;45.524;10.938;2023-07-20T11:56:55;31.20;99.90
41256;DHT22;26989;45.524;10.938;2023-07-20T11:59:25;31.30;99.90
41256;DHT22;26989;45.524;10.938;2023-07-20T12:01:52;31.30;99.90
41256;DHT22;26989;45.524;10.938;2023-07-20T12:04:22;31.40;99.90
41256;DHT22;26989;45.524;10.938;2023-07-20T12:06:49;31.40;99.90
41256;DHT22;26989;45.524;10.938;2023-07-20T12:09:17;31.30;99.90
41256;DHT22;26989;45.524;10.938;2023-07-20T12:11:44;31.50;99.90
41256;DHT22;26989;45.524;10.938;2023-07-20T12:14:14;31.60;99.90
41256;DHT22;26989;45.524;10.938;2023-07-20T12:16:44;31.70;99.90
41256;DHT22;26989;45.524;10.938;2023-07-20T12:19:12;31.70;99.90
41256;DHT22;26989;45.524;10.938;2023-07-20T12:21:40;31.70;99.90
41256;DHT22;26989;45.524;10.938;2023-07-20T12:24:10;31.70;99.90
41256;DHT22;26989;45.524;10.938;2023-07-20T12:26:37;31.60;99.90
41256;DHT22;26989;45.524;10.938;2023-07-20T12:29:04;31.40;99.90
41256;DHT22;26989;45.524;10.938;2023-07-20T12:31:36;31.60;99.90
41256;DHT22;26989;45.524;10.938;2023-07-20T12:34:03;31.70;99.90
41256;DHT22;26989;45.524;10.938;2023-07-20T12:36:30;31.70;99.90
41256;DHT22;26989;45.524;10.938;2023-07-20T12:38:58;31.80;99.90
41256;DHT22;26989;45.524;10.938;2023-07-20T12:41:25;31.90;99.90
41256;DHT22;26989;45.524;10.938;2023-07-20T12:43:52;32.10;99.90
41256;DHT22;26989;45.524;10.938;2023-07-20T12:46:20;32.00;99.90
41256;DHT22;26989;45.524;10.938;2023-07-20T12:48:47;32.10;99.90
41256;DHT22;26989;45.524;10.938;2023-07-20T12:51:15;32.30;99.90
41256;DHT22;26989;45.524;10.938;2023-07-20T12:53:44;32.20;99.90
41256;DHT22;26989;45.524;10.938;2023-07-20T12:56:11;32.30;99.90
41256;DHT22;26989;45.524;10.938;2023-07-20T12:58:40;32.30;99.90
41256;DHT22;26989;45.524;10.938;2023-07-20T13:01:07;32.20;99.90
41256;DHT22;26989;45.524;10.938;2023-07-20T13:03:34;32.30;99.90
41256;DHT22;26989;45.524;10.938;2023-07-20T13:06:21;32.30;99.90
41256;DHT22;26989;45.524;10.938;2023-07-20T13:08:51;32.30;99.90
41256;DHT22;26989;45.524;10.938;2023-07-20T13:11:22;32.30;99.90
41256;DHT22;26989;45.524;10.938;2023-07-20T13:13:50;32.50;99.90
41256;DHT22;26989;45.524;10.938;2023-07-20T13:16:16;32.50;99.90
41256;DHT22;26989;45.524;10.938;2023-07-20T13:18:43;32.50;99.90
41256;DHT22;26989;45.524;10.938;2023-07-20T13:21:10;32.60;99.90
41256;DHT22;26989;45.524;10.938;2023-07-20T13:23:39;32.70;99.90
41256;DHT22;26989;45.524;10.938;2023-07-20T13:26:05;32.70;99.90
41256;DHT22;26989;45.524;10.938;2023-07-20T13:28:35;32.80;99.90
41256;DHT22;26989;45.524;10.938;2023-07-20T13:31:01;32.90;99.90
41256;DHT22;26989;45.524;10.938;2023-07-20T13:33:29;32.90;99.90
41256;DHT22;26989;45.524;10.938;2023-07-20T13:35:56;33.00;99.90
41256;DHT22;26989;45.524;10.938;2023-07-20T13:38:23;33.00;99.40
41256;DHT22;26989;45.524;10.938;2023-07-20T13:40:50;32.90;99.90
41256;DHT22;26989;45.524;10.938;2023-07-20T13:43:16;33.00;99.50
41256;DHT22;26989;45.524;10.938;2023-07-20T13:45:43;33.10;99.70
41256;DHT22;26989;45.524;10.938;2023-07-20T13:48:10;33.10;99.80
41256;DHT22;26989;45.524;10.938;2023-07-20T13:50:37;32.70;99.90
41256;DHT22;26989;45.524;10.938;2023-07-20T13:53:08;33.00;99.60
41256;DHT22;26989;45.524;10.938;2023-07-20T13:55:38;32.70;99.60
41256;DHT22;26989;45.524;10.938;2023-07-20T13:58:08;32.60;99.90
41256;DHT22;26989;45.524;10.938;2023-07-20T14:00:39;32.70;99.80
41256;DHT22;26989;45.524;10.938;2023-07-20T14:03:06;33.00;99.90
41256;DHT22;26989;45.524;10.938;2023-07-20T14:05:35;33.10;99.90
41256;DHT22;26989;45.524;10.938;2023-07-20T14:08:06;33.30;99.10
41256;DHT22;26989;45.524;10.938;2023-07-20T14:10:33;33.30;99.60
41256;DHT22;26989;45.524;10.938;2023-07-20T14:13:00;33.20;99.60
41256;DHT22;26989;45.524;10.938;2023-07-20T14:15:27;33.30;98.50
41256;DHT22;26989;45.524;10.938;2023-07-20T14:17:54;33.40;99.10
41256;DHT22;26989;45.524;10.938;2023-07-20T14:20:21;33.60;99.30
41256;DHT22;26989;45.524;10.938;2023-07-20T14:22:48;33.60;98.90
41256;DHT22;26989;45.524;10.938;2023-07-20T14:25:17;33.50;98.70
41256;DHT22;26989;45.524;10.938;2023-07-20T14:27:45;33.50;98.80
41256;DHT22;26989;45.524;10.938;2023-07-20T14:30:13;33.60;99.10
41256;DHT22;26989;45.524;10.938;2023-07-20T14:32:41;33.60;98.90
41256;DHT22;26989;45.524;10.938;2023-07-20T14:35:08;33.70;98.70
41256;DHT22;26989;45.524;10.938;2023-07-20T14:37:36;33.80;99.20
41256;DHT22;26989;45.524;10.938;2023-07-20T14:40:04;34.20;97.80
41256;DHT22;26989;45.524;10.938;2023-07-20T14:42:34;34.10;98.10
41256;DHT22;26989;45.524;10.938;2023-07-20T14:45:01;34.10;98.10
41256;DHT22;26989;45.524;10.938;2023-07-20T14:47:29;34.00;97.50
41256;DHT22;26989;45.524;10.938;2023-07-20T14:49:59;33.70;98.60
41256;DHT22;26989;45.524;10.938;2023-07-20T14:52:26;33.70;97.90
41256;DHT22;26989;45.524;10.938;2023-07-20T14:54:55;33.60;98.20
41256;DHT22;26989;45.524;10.938;2023-07-20T14:57:22;33.60;98.70
41256;DHT22;26989;45.524;10.938;2023-07-20T14:59:50;33.50;98.30
41256;DHT22;26989;45.524;10.938;2023-07-20T15:02:17;33.60;98.90
41256;DHT22;26989;45.524;10.938;2023-07-20T15:04:50;33.60;98.00
41256;DHT22;26989;45.524;10.938;2023-07-20T15:07:21;33.60;98.70
41256;DHT22;26989;45.524;10.938;2023-07-20T15:09:49;33.70;98.00
41256;DHT22;26989;45.524;10.938;2023-07-20T15:12:15;33.70;98.40
41256;DHT22;26989;45.524;10.938;2023-07-20T15:14:43;33.90;98.30
41256;DHT22;26989;45.524;10.938;2023-07-20T15:17:10;34.10;98.30
41256;DHT22;26989;45.524;10.938;2023-07-20T15:19:38;34.00;97.70
41256;DHT22;26989;45.524;10.938;2023-07-20T15:22:05;34.00;97.70
41256;DHT22;26989;45.524;10.938;2023-07-20T15:24:35;34.20;97.10
41256;DHT22;26989;45.524;10.938;2023-07-20T15:27:03;34.30;97.40
41256;DHT22;26989;45.524;10.938;2023-07-20T15:29:30;34.30;97.30
41256;DHT22;26989;45.524;10.938;2023-07-20T15:32:00;34.40;96.60
41256;DHT22;26989;45.524;10.938;2023-07-20T15:34:27;34.30;97.40
41256;DHT22;26989;45.524;10.938;2023-07-20T15:36:54;34.30;96.90
41256;DHT22;26989;45.524;10.938;2023-07-20T15:39:21;34.30;97.20